Terminal Aerodrome Forecast
Issued by NWS Duluth, MN

Home | Current Version | Previous Version | Text Only | Print | Product List | Glossary On
Versions: 1 2 3 4 5 6 7 8 9 10 11 12 13 14 15 16 17 18 19 20 21 22 23 24
000
FTUS43 KDLH 270500
TAFDLH
TAF
KDLH 270520Z 2706/2806 30007KT P6SM VCSH FEW060 FEW110
     FM271000 29007KT P6SM -RA SCT025 OVC060
      TEMPO 2714/2718 34013G20KT 5SM -SHRA BR BKN025 OVC040
     FM271800 04012KT P6SM VCSH SCT025 BKN050
     FM280000 34007KT P6SM SCT050=

USA.gov is the U.S. government's official web portal to all federal, state and local government web resources and services.